createdAt,value
2022-10-04T00:00:06.494Z,1006.02
2022-10-04T00:01:06.467Z,1006.05
2022-10-04T00:02:06.560Z,1006.04
2022-10-04T00:03:06.530Z,1006.11
2022-10-04T00:04:06.421Z,1006.15
2022-10-04T00:05:06.459Z,1006.14
2022-10-04T00:06:06.399Z,1006.07
2022-10-04T00:07:06.418Z,1006.10
2022-10-04T00:08:06.409Z,1006.04
2022-10-04T00:09:06.368Z,1006.04
2022-10-04T00:10:06.348Z,1006.06
2022-10-04T00:11:06.399Z,1006.09
2022-10-04T00:12:06.346Z,1006.06
2022-10-04T00:13:06.320Z,1006.04
2022-10-04T00:14:06.299Z,1006.08
2022-10-04T00:15:06.302Z,1006.03
2022-10-04T00:16:06.320Z,1005.99
2022-10-04T00:17:06.312Z,1005.98
2022-10-04T00:18:06.279Z,1005.97
2022-10-04T00:19:06.249Z,1005.97
2022-10-04T00:20:06.249Z,1005.97
2022-10-04T00:21:06.222Z,1005.98
2022-10-04T00:22:06.221Z,1006.03
2022-10-04T00:23:06.230Z,1006.05
2022-10-04T00:24:06.192Z,1005.99
2022-10-04T00:25:06.181Z,1006.04
2022-10-04T00:26:06.187Z,1006.09
2022-10-04T00:27:06.170Z,1006.04
2022-10-04T00:28:06.202Z,1006.04
2022-10-04T00:29:06.158Z,1005.96
2022-10-04T00:30:06.122Z,1005.89
2022-10-04T00:31:06.149Z,1005.90
2022-10-04T00:32:06.117Z,1005.83
2022-10-04T00:33:06.094Z,1005.90
2022-10-04T00:34:06.107Z,1005.89
2022-10-04T00:35:06.083Z,1005.91
2022-10-04T00:36:06.062Z,1005.91
2022-10-04T00:37:06.042Z,1005.91
2022-10-04T00:38:06.031Z,1005.91
2022-10-04T00:39:06.052Z,1005.87
2022-10-04T00:40:06.019Z,1005.93
2022-10-04T00:41:06.014Z,1005.90
2022-10-04T00:42:05.986Z,1005.86
2022-10-04T00:43:05.974Z,1005.81
2022-10-04T00:44:05.979Z,1005.84
2022-10-04T00:45:05.984Z,1005.77
2022-10-04T00:46:06.052Z,1005.79
2022-10-04T00:47:05.952Z,1005.81
2022-10-04T00:48:05.924Z,1005.80
2022-10-04T00:49:05.913Z,1005.79
2022-10-04T00:50:05.903Z,1005.80
2022-10-04T00:51:05.924Z,1005.78
2022-10-04T00:52:05.865Z,1005.71
2022-10-04T00:53:05.874Z,1005.77
2022-10-04T00:54:05.845Z,1005.81
2022-10-04T00:55:05.834Z,1005.78
2022-10-04T00:56:05.863Z,1005.88
2022-10-04T00:57:05.813Z,1005.89
2022-10-04T00:58:05.806Z,1005.97
2022-10-04T00:59:05.786Z,1005.90
2022-10-04T01:00:05.785Z,1005.92
2022-10-04T01:01:05.866Z,1005.92
2022-10-04T01:02:05.846Z,1005.96
2022-10-04T01:03:05.748Z,1005.98
2022-10-04T01:04:05.738Z,1005.96
2022-10-04T01:05:05.714Z,1005.89
2022-10-04T01:06:05.708Z,1005.88
2022-10-04T01:07:05.687Z,1005.75
2022-10-04T01:08:05.730Z,1005.64
2022-10-04T01:09:05.666Z,1005.63
2022-10-04T01:10:05.696Z,1005.63
2022-10-04T01:11:05.651Z,1005.55
2022-10-04T01:12:05.667Z,1005.61
2022-10-04T01:13:05.629Z,1005.56
2022-10-04T01:14:05.669Z,1005.59
2022-10-04T01:15:05.622Z,1005.70
2022-10-04T01:16:05.653Z,1005.58
2022-10-04T01:17:05.608Z,1005.61
2022-10-04T01:18:08.605Z,1005.64
2022-10-04T01:19:05.571Z,1005.61
2022-10-04T01:20:05.575Z,1005.64
2022-10-04T01:21:05.547Z,1005.58
2022-10-04T01:22:05.518Z,1005.55
2022-10-04T01:23:05.508Z,1005.58
2022-10-04T01:24:05.497Z,1005.63
2022-10-04T01:25:05.489Z,1005.69
2022-10-04T01:26:05.498Z,1005.73
2022-10-04T01:27:05.468Z,1005.73
2022-10-04T01:28:05.478Z,1005.73
2022-10-04T01:29:05.438Z,1005.74
2022-10-04T01:30:05.440Z,1005.71
2022-10-04T01:31:05.586Z,1005.67
2022-10-04T01:32:05.408Z,1005.63
2022-10-04T01:33:05.388Z,1005.62
2022-10-04T01:34:05.405Z,1005.62
2022-10-04T01:35:05.389Z,1005.54
2022-10-04T01:36:05.388Z,1005.59
2022-10-04T01:37:05.430Z,1005.60
2022-10-04T01:38:05.337Z,1005.57
2022-10-04T01:39:05.326Z,1005.61
2022-10-04T01:40:05.309Z,1005.56
2022-10-04T01:41:05.299Z,1005.55
2022-10-04T01:42:05.315Z,1005.54
2022-10-04T01:43:05.309Z,1005.52
2022-10-04T01:44:05.270Z,1005.52
2022-10-04T01:45:05.278Z,1005.60
2022-10-04T01:46:05.272Z,1005.64
2022-10-04T01:47:05.232Z,1005.55
2022-10-04T01:48:05.214Z,1005.51
2022-10-04T01:49:05.241Z,1005.45
2022-10-04T01:50:07.287Z,1005.42
2022-10-04T01:51:05.213Z,1005.46
2022-10-04T01:52:05.177Z,1005.40
2022-10-04T01:53:05.170Z,1005.36
2022-10-04T01:54:05.152Z,1005.43
2022-10-04T01:55:05.202Z,1005.39
2022-10-04T01:56:05.141Z,1005.38
2022-10-04T01:57:05.143Z,1005.32
2022-10-04T01:58:05.101Z,1005.31
2022-10-04T01:59:05.110Z,1005.26
2022-10-04T02:00:05.111Z,1005.32
2022-10-04T02:01:05.158Z,1005.29
2022-10-04T02:02:05.066Z,1005.27
2022-10-04T02:03:05.075Z,1005.22
2022-10-04T02:04:05.041Z,1005.31
2022-10-04T02:05:05.059Z,1005.27
2022-10-04T02:06:05.081Z,1005.24
2022-10-04T02:07:05.003Z,1005.29
2022-10-04T02:08:05.008Z,1005.26
2022-10-04T02:09:04.983Z,1005.36
2022-10-04T02:10:05.002Z,1005.32
2022-10-04T02:11:04.962Z,1005.29
2022-10-04T02:12:04.984Z,1005.34
2022-10-04T02:13:04.951Z,1005.25
2022-10-04T02:14:04.917Z,1005.24
2022-10-04T02:15:04.913Z,1005.25
2022-10-04T02:16:04.928Z,1005.21
2022-10-04T02:17:04.873Z,1005.28
2022-10-04T02:18:04.913Z,1005.25
2022-10-04T02:19:04.878Z,1005.23
2022-10-04T02:20:04.864Z,1005.29
2022-10-04T02:21:04.841Z,1005.22
2022-10-04T02:22:04.840Z,1005.26
2022-10-04T02:23:04.815Z,1005.24
2022-10-04T02:24:04.855Z,1005.38
2022-10-04T02:25:04.793Z,1005.28
2022-10-04T02:26:04.798Z,1005.18
2022-10-04T02:27:04.756Z,1005.33
2022-10-04T02:28:04.798Z,1005.29
2022-10-04T02:29:04.754Z,1005.18
2022-10-04T02:30:04.755Z,1005.25
2022-10-04T02:31:04.749Z,1005.20
2022-10-04T02:32:04.711Z,1005.22
2022-10-04T02:33:04.705Z,1005.15
2022-10-04T02:34:04.686Z,1005.11
2022-10-04T02:35:04.674Z,1005.13
2022-10-04T02:36:04.696Z,1005.08
2022-10-04T02:37:04.657Z,1005.07
2022-10-04T02:38:04.636Z,1005.02
2022-10-04T02:39:04.629Z,1005.00
2022-10-04T02:40:04.633Z,1005.08
2022-10-04T02:41:04.597Z,1005.00
2022-10-04T02:42:04.627Z,1005.08
2022-10-04T02:43:04.586Z,1005.11
2022-10-04T02:44:04.578Z,1005.12
2022-10-04T02:45:04.586Z,1005.12
2022-10-04T02:46:04.610Z,1005.09
2022-10-04T02:47:04.547Z,1005.10
2022-10-04T02:48:04.572Z,1005.10
2022-10-04T02:49:04.526Z,1005.10
2022-10-04T02:50:04.507Z,1005.08
2022-10-04T02:51:04.498Z,1005.11
2022-10-04T02:52:04.491Z,1005.12
2022-10-04T02:53:04.458Z,1005.09
2022-10-04T02:54:04.489Z,1005.13
2022-10-04T02:55:04.518Z,1005.04
2022-10-04T02:56:04.428Z,1005.05
2022-10-04T02:57:04.428Z,1005.05
2022-10-04T02:58:04.409Z,1005.03
2022-10-04T02:59:04.427Z,1005.01
2022-10-04T03:00:04.430Z,1004.99
2022-10-04T03:01:04.495Z,1005.02
2022-10-04T03:02:04.405Z,1005.05
2022-10-04T03:03:04.349Z,1005.06
2022-10-04T03:04:04.339Z,1005.01
2022-10-04T03:05:04.379Z,1004.95
2022-10-04T03:06:04.311Z,1004.90
2022-10-04T03:07:04.307Z,1004.89
2022-10-04T03:08:04.297Z,1004.84
2022-10-04T03:09:04.286Z,1004.85
2022-10-04T03:10:04.311Z,1004.87
2022-10-04T03:11:04.313Z,1004.90
2022-10-04T03:12:04.259Z,1004.90
2022-10-04T03:13:04.234Z,1004.94
2022-10-04T03:14:04.229Z,1004.94
2022-10-04T03:15:04.231Z,1004.88
2022-10-04T03:16:04.267Z,1004.91
2022-10-04T03:17:04.274Z,1004.91
2022-10-04T03:18:04.180Z,1004.88
2022-10-04T03:19:04.170Z,1004.87
2022-10-04T03:20:04.165Z,1004.89
2022-10-04T03:21:04.152Z,1004.85
2022-10-04T03:22:04.132Z,1004.88
2022-10-04T03:23:04.155Z,1004.90
2022-10-04T03:24:04.121Z,1004.82
2022-10-04T03:25:04.114Z,1004.80
2022-10-04T03:26:04.092Z,1004.82
2022-10-04T03:27:04.073Z,1004.81
2022-10-04T03:28:04.116Z,1004.80
2022-10-04T03:29:04.094Z,1004.85
2022-10-04T03:30:04.039Z,1004.86
2022-10-04T03:31:04.114Z,1004.89
2022-10-04T03:32:04.029Z,1004.88
2022-10-04T03:33:04.024Z,1004.87
2022-10-04T03:34:04.014Z,1004.88
2022-10-04T03:35:04.022Z,1004.85
2022-10-04T03:36:03.986Z,1004.87
2022-10-04T03:37:03.961Z,1004.91
2022-10-04T03:38:03.944Z,1004.89
2022-10-04T03:39:03.942Z,1004.91
2022-10-04T03:40:03.927Z,1004.83
2022-10-04T03:41:04.149Z,1004.84
2022-10-04T03:42:03.903Z,1004.88
2022-10-04T03:43:03.904Z,1004.82
2022-10-04T03:44:05.185Z,1004.87
2022-10-04T03:45:03.888Z,1004.90
2022-10-04T03:46:03.897Z,1004.80
2022-10-04T03:47:03.883Z,1004.82
2022-10-04T03:48:03.845Z,1004.77
2022-10-04T03:49:03.826Z,1004.82
2022-10-04T03:50:03.816Z,1004.78
2022-10-04T03:51:03.814Z,1004.80
2022-10-04T03:52:03.837Z,1004.84
2022-10-04T03:53:03.782Z,1004.78
2022-10-04T03:54:03.764Z,1004.74
2022-10-04T03:55:03.754Z,1004.77
2022-10-04T03:56:04.536Z,1004.79
2022-10-04T03:57:03.867Z,1004.73
2022-10-04T03:58:03.735Z,1004.74
2022-10-04T03:59:03.712Z,1004.73
2022-10-04T04:00:03.694Z,1004.80
2022-10-04T04:01:03.727Z,1004.82
2022-10-04T04:02:03.733Z,1004.80
2022-10-04T04:03:03.695Z,1004.79
2022-10-04T04:04:03.657Z,1004.79
2022-10-04T04:05:03.635Z,1004.72
2022-10-04T04:06:03.629Z,1004.68
2022-10-04T04:07:03.615Z,1004.67
2022-10-04T04:08:03.606Z,1004.67
2022-10-04T04:09:03.628Z,1004.69
2022-10-04T04:10:03.607Z,1004.73
2022-10-04T04:11:03.566Z,1004.67
2022-10-04T04:12:03.556Z,1004.66
2022-10-04T04:13:03.537Z,1004.65
2022-10-04T04:14:03.536Z,1004.65
2022-10-04T04:15:03.562Z,1004.63
2022-10-04T04:16:03.749Z,1004.62
2022-10-04T04:17:03.604Z,1004.61
2022-10-04T04:18:03.501Z,1004.67
2022-10-04T04:19:03.750Z,1004.61
2022-10-04T04:20:06.950Z,1004.64
2022-10-04T04:21:03.487Z,1004.59
2022-10-04T04:22:03.468Z,1004.60
2022-10-04T04:23:03.460Z,1004.63
2022-10-04T04:24:03.418Z,1004.60
2022-10-04T04:25:03.398Z,1004.62
2022-10-04T04:26:03.426Z,1004.60
2022-10-04T04:27:03.382Z,1004.63
2022-10-04T04:28:03.453Z,1004.66
2022-10-04T04:29:03.352Z,1004.65
2022-10-04T04:30:03.388Z,1004.60
2022-10-04T04:31:03.336Z,1004.56
2022-10-04T04:32:03.458Z,1004.57
2022-10-04T04:33:03.315Z,1004.67
2022-10-04T04:34:03.319Z,1004.63
2022-10-04T04:35:03.288Z,1004.62
2022-10-04T04:36:03.269Z,1004.61
2022-10-04T04:37:03.262Z,1004.59
2022-10-04T04:38:03.280Z,1004.61
2022-10-04T04:39:03.249Z,1004.57
2022-10-04T04:40:03.233Z,1004.63
2022-10-04T04:41:03.225Z,1004.61
2022-10-04T04:42:03.210Z,1004.57
2022-10-04T04:43:03.250Z,1004.58
2022-10-04T04:44:03.190Z,1004.59
2022-10-04T04:45:03.206Z,1004.68
2022-10-04T04:46:26.131Z,1004.64
2022-10-04T04:47:04.140Z,1004.62
2022-10-04T04:48:03.150Z,1004.58
2022-10-04T04:49:03.152Z,1004.61
2022-10-04T04:50:03.121Z,1004.60
2022-10-04T04:51:03.100Z,1004.55
2022-10-04T04:52:03.111Z,1004.57
2022-10-04T04:53:03.081Z,1004.61
2022-10-04T04:54:03.100Z,1004.69
2022-10-04T04:55:03.052Z,1004.64
2022-10-04T04:56:04.546Z,1004.74
2022-10-04T04:57:03.031Z,1004.76
2022-10-04T04:58:03.023Z,1004.76
2022-10-04T04:59:03.013Z,1004.80
2022-10-04T05:00:03.021Z,1004.79
2022-10-04T05:01:03.073Z,1004.79
2022-10-04T05:02:03.004Z,1004.75
2022-10-04T05:03:02.973Z,1004.80
2022-10-04T05:04:02.953Z,1004.75
2022-10-04T05:05:02.942Z,1004.70
2022-10-04T05:06:02.985Z,1004.65
2022-10-04T05:07:02.929Z,1004.67
2022-10-04T05:08:02.904Z,1004.62
2022-10-04T05:09:02.922Z,1004.63
2022-10-04T05:10:02.887Z,1004.60
2022-10-04T05:11:02.892Z,1004.55
2022-10-04T05:12:02.882Z,1004.62
2022-10-04T05:13:02.857Z,1004.58
2022-10-04T05:14:02.833Z,1004.63
2022-10-04T05:15:02.826Z,1004.70
2022-10-04T05:16:02.857Z,1004.69
2022-10-04T05:17:02.802Z,1004.68
2022-10-04T05:18:02.807Z,1004.73
2022-10-04T05:19:02.786Z,1004.68
2022-10-04T05:20:02.770Z,1004.68
2022-10-04T05:21:02.757Z,1004.66
2022-10-04T05:22:02.746Z,1004.66
2022-10-04T05:23:02.735Z,1004.69
2022-10-04T05:24:02.794Z,1004.62
2022-10-04T05:25:02.720Z,1004.68
2022-10-04T05:26:02.694Z,1004.58
2022-10-04T05:27:02.699Z,1004.60
2022-10-04T05:28:02.751Z,1004.61
2022-10-04T05:29:02.718Z,1004.58
2022-10-04T05:30:02.656Z,1004.62
2022-10-04T05:31:02.647Z,1004.60
2022-10-04T05:32:02.717Z,1004.59
2022-10-04T05:33:02.629Z,1004.63
2022-10-04T05:34:02.614Z,1004.65
2022-10-04T05:35:02.647Z,1004.62
2022-10-04T05:36:02.585Z,1004.61
2022-10-04T05:37:02.565Z,1004.69
2022-10-04T05:38:02.561Z,1004.68
2022-10-04T05:39:02.554Z,1004.74
2022-10-04T05:40:02.546Z,1004.72
2022-10-04T05:41:02.556Z,1004.78
2022-10-04T05:42:02.525Z,1004.80
2022-10-04T05:43:02.500Z,1004.82
2022-10-04T05:44:02.507Z,1004.76
2022-10-04T05:45:02.488Z,1004.85
2022-10-04T05:46:02.482Z,1004.83
2022-10-04T05:47:02.479Z,1004.84
2022-10-04T05:48:02.438Z,1004.87
2022-10-04T05:49:02.428Z,1004.90
2022-10-04T05:50:02.428Z,1004.89
2022-10-04T05:51:02.419Z,1004.96
2022-10-04T05:52:02.416Z,1004.98
2022-10-04T05:53:02.378Z,1004.98
2022-10-04T05:54:02.369Z,1004.98
2022-10-04T05:55:02.389Z,1005.01
2022-10-04T05:56:02.348Z,1005.00
2022-10-04T05:57:02.340Z,1005.00
2022-10-04T05:58:02.359Z,1004.94
2022-10-04T05:59:02.323Z,1005.03
2022-10-04T06:00:04.596Z,1005.02
2022-10-04T06:01:02.353Z,1005.03
2022-10-04T06:02:02.323Z,1005.09
2022-10-04T06:03:02.270Z,1005.10
2022-10-04T06:04:02.296Z,1005.09
2022-10-04T06:05:02.254Z,1004.94
2022-10-04T06:06:02.240Z,1004.98
2022-10-04T06:07:02.258Z,1004.99
2022-10-04T06:08:02.215Z,1004.98
2022-10-04T06:09:02.234Z,1005.02
2022-10-04T06:10:02.187Z,1004.94
2022-10-04T06:11:02.209Z,1004.95
2022-10-04T06:12:02.213Z,1004.98
2022-10-04T06:13:02.164Z,1004.92
2022-10-04T06:14:02.167Z,1005.00
2022-10-04T06:15:02.480Z,1004.99
2022-10-04T06:16:02.130Z,1004.98
2022-10-04T06:17:02.146Z,1004.97
2022-10-04T06:18:02.091Z,1005.04
2022-10-04T06:19:02.082Z,1005.04
2022-10-04T06:20:02.078Z,1005.01
2022-10-04T06:21:02.094Z,1004.98
2022-10-04T06:22:02.051Z,1005.01
2022-10-04T06:23:02.045Z,1005.03
2022-10-04T06:24:02.020Z,1005.08
2022-10-04T06:25:02.015Z,1005.00
2022-10-04T06:26:02.003Z,1005.01
2022-10-04T06:27:02.055Z,1005.04
2022-10-04T06:28:01.991Z,1005.00
2022-10-04T06:29:01.963Z,1005.00
2022-10-04T06:30:01.957Z,1004.94
2022-10-04T06:31:01.994Z,1004.95
2022-10-04T06:32:01.965Z,1004.84
2022-10-04T06:33:01.963Z,1004.79
2022-10-04T06:34:01.923Z,1004.78
2022-10-04T06:35:01.903Z,1004.64
2022-10-04T06:36:01.886Z,1004.64
2022-10-04T06:37:01.888Z,1004.64
2022-10-04T06:38:01.883Z,1004.61
2022-10-04T06:39:04.256Z,1004.66
2022-10-04T06:40:01.839Z,1004.66
2022-10-04T06:41:01.825Z,1004.60
2022-10-04T06:42:01.823Z,1004.53
2022-10-04T06:43:01.817Z,1004.59
2022-10-04T06:44:01.816Z,1004.54
2022-10-04T06:45:01.784Z,1004.52
2022-10-04T06:46:01.842Z,1004.53
2022-10-04T06:47:01.757Z,1004.46
2022-10-04T06:48:01.748Z,1004.52
2022-10-04T06:49:01.737Z,1004.49
2022-10-04T06:50:01.765Z,1004.48
2022-10-04T06:51:01.715Z,1004.46
2022-10-04T06:52:01.696Z,1004.42
2022-10-04T06:53:01.696Z,1004.45
2022-10-04T06:54:01.695Z,1004.43
2022-10-04T06:55:01.694Z,1004.45
2022-10-04T06:56:01.717Z,1004.47
2022-10-04T06:57:01.657Z,1004.51
2022-10-04T06:58:01.640Z,1004.48
2022-10-04T06:59:01.667Z,1004.55
2022-10-04T07:00:01.630Z,1004.57
2022-10-04T07:01:01.689Z,1004.57
2022-10-04T07:02:01.715Z,1004.65
2022-10-04T07:03:01.580Z,1004.58
2022-10-04T07:04:01.576Z,1004.58
2022-10-04T07:05:08.485Z,1004.60
2022-10-04T07:06:02.689Z,1004.62
2022-10-04T07:07:01.547Z,1004.58
2022-10-04T07:08:01.534Z,1004.61
2022-10-04T07:09:01.507Z,1004.59
2022-10-04T07:10:01.519Z,1004.54
2022-10-04T07:11:01.513Z,1004.49
2022-10-04T07:12:01.512Z,1004.54
2022-10-04T07:13:01.465Z,1004.46
2022-10-04T07:14:01.463Z,1004.55
2022-10-04T07:15:01.462Z,1004.56
2022-10-04T07:16:01.469Z,1004.61
2022-10-04T07:17:01.420Z,1004.55
2022-10-04T07:18:01.437Z,1004.60
2022-10-04T07:19:01.423Z,1004.67
2022-10-04T07:20:01.381Z,1004.70
2022-10-04T07:21:01.368Z,1004.71
2022-10-04T07:22:01.378Z,1004.69
2022-10-04T07:23:01.340Z,1004.77
2022-10-04T07:24:01.388Z,1004.76
2022-10-04T07:25:01.330Z,1004.78
2022-10-04T07:26:01.324Z,1004.74
2022-10-04T07:27:01.293Z,1004.80
2022-10-04T07:28:01.346Z,1004.82
2022-10-04T07:29:01.272Z,1004.90
2022-10-04T07:30:01.292Z,1004.91
2022-10-04T07:31:01.364Z,1004.91
2022-10-04T07:32:01.243Z,1004.94
2022-10-04T07:33:01.230Z,1004.96
2022-10-04T07:34:01.222Z,1004.96
2022-10-04T07:35:01.251Z,1004.98
2022-10-04T07:36:01.200Z,1004.95
2022-10-04T07:37:01.181Z,1005.03
2022-10-04T07:38:01.176Z,1005.00
2022-10-04T07:39:01.151Z,1005.04
2022-10-04T07:40:01.161Z,1005.07
2022-10-04T07:41:01.153Z,1005.00
2022-10-04T07:42:01.130Z,1005.02
2022-10-04T07:43:01.114Z,1005.03
2022-10-04T07:44:01.094Z,1005.00
2022-10-04T07:45:01.093Z,1004.92
2022-10-04T07:46:01.287Z,1004.93
2022-10-04T07:47:01.055Z,1004.92
2022-10-04T07:48:01.044Z,1004.94
2022-10-04T07:49:01.045Z,1004.91
2022-10-04T07:50:01.033Z,1004.92
2022-10-04T07:51:01.035Z,1004.84
2022-10-04T07:52:01.088Z,1004.91
2022-10-04T07:53:02.353Z,1004.94
2022-10-04T07:54:00.986Z,1004.91
2022-10-04T07:55:00.965Z,1004.91
2022-10-04T07:56:00.954Z,1004.91
2022-10-04T07:57:00.965Z,1004.84
2022-10-04T07:58:00.936Z,1004.86
2022-10-04T07:59:00.939Z,1004.88
2022-10-04T08:00:00.916Z,1004.89
2022-10-04T08:01:00.896Z,1004.87
2022-10-04T08:02:00.900Z,1004.85
2022-10-04T08:03:01.043Z,1004.85
2022-10-04T08:04:00.870Z,1004.90
2022-10-04T08:05:00.865Z,1004.90
2022-10-04T08:06:00.836Z,1004.89
2022-10-04T08:07:00.835Z,1004.89
2022-10-04T08:08:00.847Z,1004.97
2022-10-04T08:09:00.817Z,1004.97
2022-10-04T08:10:00.806Z,1004.98
2022-10-04T08:11:00.807Z,1005.01
2022-10-04T08:12:00.777Z,1004.98
2022-10-04T08:13:00.759Z,1004.99
2022-10-04T08:14:00.782Z,1005.06
2022-10-04T08:15:00.747Z,1005.03
2022-10-04T08:16:00.805Z,1005.03
2022-10-04T08:17:00.708Z,1004.97
2022-10-04T08:18:00.698Z,1005.06
2022-10-04T08:19:00.731Z,1005.03
2022-10-04T08:20:00.699Z,1005.01
2022-10-04T08:21:00.672Z,1004.96
2022-10-04T08:22:00.658Z,1004.99
2022-10-04T08:23:00.647Z,1004.97
2022-10-04T08:24:00.628Z,1004.89
2022-10-04T08:25:00.619Z,1004.94
2022-10-04T08:26:00.629Z,1004.94
2022-10-04T08:27:00.619Z,1004.96
2022-10-04T08:28:00.633Z,1004.97
2022-10-04T08:29:00.591Z,1004.91
2022-10-04T08:30:00.551Z,1004.91
2022-10-04T08:31:00.631Z,1004.85
2022-10-04T08:32:04.909Z,1004.89
2022-10-04T08:33:00.530Z,1004.91
2022-10-04T08:34:00.521Z,1004.91
2022-10-04T08:35:00.512Z,1004.89
2022-10-04T08:36:00.491Z,1004.83
2022-10-04T08:37:00.511Z,1004.88
2022-10-04T08:38:00.462Z,1004.82
2022-10-04T08:39:00.451Z,1004.80
2022-10-04T08:40:00.461Z,1004.81
2022-10-04T08:41:00.441Z,1004.84
2022-10-04T08:42:00.423Z,1004.82
2022-10-04T08:43:00.455Z,1004.82
2022-10-04T08:44:00.402Z,1004.82
2022-10-04T08:45:00.400Z,1004.84
2022-10-04T08:46:00.464Z,1004.83
2022-10-04T08:47:00.376Z,1004.83
2022-10-04T08:48:00.355Z,1004.80
2022-10-04T08:49:00.365Z,1004.89
2022-10-04T08:50:00.331Z,1004.82
2022-10-04T08:51:00.323Z,1004.89
2022-10-04T08:52:00.314Z,1004.87
2022-10-04T08:53:00.294Z,1004.85
2022-10-04T08:54:00.276Z,1004.83
2022-10-04T08:55:00.292Z,1004.77
2022-10-04T08:56:00.263Z,1004.77
2022-10-04T08:57:00.267Z,1004.84
2022-10-04T08:58:00.235Z,1004.80
2022-10-04T08:59:00.226Z,1004.81
2022-10-04T09:00:00.310Z,1004.89
2022-10-04T09:01:00.224Z,1004.89
2022-10-04T09:02:00.198Z,1004.87
2022-10-04T09:03:00.272Z,1004.84
2022-10-04T09:04:00.175Z,1004.83
2022-10-04T09:05:00.165Z,1004.87
2022-10-04T09:06:00.197Z,1004.87
2022-10-04T09:07:00.127Z,1004.91
2022-10-04T09:08:00.147Z,1004.89
2022-10-04T09:09:00.107Z,1004.87
2022-10-04T09:10:00.134Z,1004.87
2022-10-04T09:11:00.103Z,1004.85
2022-10-04T09:12:00.102Z,1004.78
2022-10-04T09:13:00.083Z,1004.78
2022-10-04T09:14:00.059Z,1004.77
2022-10-04T09:15:00.040Z,1004.80
2022-10-04T09:16:00.111Z,1004.75
2022-10-04T09:17:00.011Z,1004.76
2022-10-04T09:18:00.022Z,1004.76
2022-10-04T09:18:59.988Z,1004.80
2022-10-04T09:20:14.294Z,1004.69
2022-10-04T09:21:00.959Z,1004.76
2022-10-04T09:21:59.954Z,1004.69
2022-10-04T09:23:05.453Z,1004.66
2022-10-04T09:24:00.929Z,1004.69
2022-10-04T09:24:59.910Z,1004.76
2022-10-04T09:25:59.908Z,1004.70
2022-10-04T09:26:59.905Z,1004.67
2022-10-04T09:27:59.935Z,1004.67
2022-10-04T09:29:04.598Z,1004.68
2022-10-04T09:30:00.893Z,1004.63
2022-10-04T09:30:59.917Z,1004.65
2022-10-04T09:31:59.858Z,1004.63
2022-10-04T09:32:59.821Z,1004.57
2022-10-04T09:33:59.814Z,1004.59
2022-10-04T09:34:59.831Z,1004.59
2022-10-04T09:35:59.798Z,1004.60
2022-10-04T09:36:59.785Z,1004.60
2022-10-04T09:37:59.780Z,1004.63
2022-10-04T09:39:25.309Z,1004.62
2022-10-04T09:40:00.807Z,1004.56
2022-10-04T09:40:59.745Z,1004.56
2022-10-04T09:41:59.724Z,1004.61
2022-10-04T09:42:59.718Z,1004.57
2022-10-04T09:43:59.702Z,1004.58
2022-10-04T09:44:59.695Z,1004.57
2022-10-04T09:45:59.786Z,1004.57
2022-10-04T09:46:59.685Z,1004.58
2022-10-04T09:47:59.654Z,1004.53
2022-10-04T09:48:59.647Z,1004.56
2022-10-04T09:49:59.624Z,1004.56
2022-10-04T09:50:59.628Z,1004.60
2022-10-04T09:51:59.635Z,1004.58
2022-10-04T09:52:59.594Z,1004.57
2022-10-04T09:53:59.590Z,1004.61
2022-10-04T09:54:59.575Z,1004.60
2022-10-04T09:55:59.556Z,1004.57
2022-10-04T09:56:59.596Z,1004.51
2022-10-04T09:57:59.546Z,1004.47
2022-10-04T09:58:59.538Z,1004.51
2022-10-04T09:59:59.558Z,1004.50
2022-10-04T10:00:59.527Z,1004.47
2022-10-04T10:01:59.569Z,1004.50
2022-10-04T10:02:59.743Z,1004.53
2022-10-04T10:03:59.467Z,1004.50
2022-10-04T10:04:59.467Z,1004.52
2022-10-04T10:05:59.449Z,1004.46
2022-10-04T10:06:59.438Z,1004.54
2022-10-04T10:07:59.428Z,1004.54
2022-10-04T10:08:59.460Z,1004.49
2022-10-04T10:09:59.407Z,1004.54
2022-10-04T10:10:59.397Z,1004.48
2022-10-04T10:11:59.379Z,1004.43
2022-10-04T10:12:59.388Z,1004.40
2022-10-04T10:13:59.399Z,1004.43
2022-10-04T10:14:59.347Z,1004.52
2022-10-04T10:15:59.444Z,1004.39
2022-10-04T10:16:59.324Z,1004.44
2022-10-04T10:17:59.319Z,1004.42
2022-10-04T10:18:59.311Z,1004.40
2022-10-04T10:19:59.321Z,1004.38
2022-10-04T10:20:59.281Z,1004.44
2022-10-04T10:21:59.281Z,1004.39
2022-10-04T10:22:59.251Z,1004.43
2022-10-04T10:23:59.252Z,1004.52
2022-10-04T10:24:59.251Z,1004.43
2022-10-04T10:25:59.362Z,1004.43
2022-10-04T10:26:59.212Z,1004.49
2022-10-04T10:27:59.227Z,1004.41
2022-10-04T10:28:59.193Z,1004.42
2022-10-04T10:29:59.193Z,1004.43
2022-10-04T10:30:59.216Z,1004.49
2022-10-04T10:31:59.184Z,1004.44
2022-10-04T10:32:59.150Z,1004.42
2022-10-04T10:33:59.133Z,1004.47
2022-10-04T10:34:59.125Z,1004.52
2022-10-04T10:35:59.102Z,1004.43
2022-10-04T10:36:59.122Z,1004.41
2022-10-04T10:38:02.318Z,1004.46
2022-10-04T10:39:00.075Z,1004.50
2022-10-04T10:39:59.067Z,1004.49
2022-10-04T10:40:59.049Z,1004.43
2022-10-04T10:41:59.046Z,1004.43
2022-10-04T10:42:59.045Z,1004.44
2022-10-04T10:43:59.035Z,1004.42
2022-10-04T10:44:59.003Z,1004.42
2022-10-04T10:45:59.001Z,1004.44
2022-10-04T10:46:59.018Z,1004.51
2022-10-04T10:47:58.972Z,1004.42
2022-10-04T10:48:59.006Z,1004.43
2022-10-04T10:49:58.948Z,1004.43
2022-10-04T10:50:58.930Z,1004.52
2022-10-04T10:51:58.926Z,1004.47
2022-10-04T10:52:58.907Z,1004.45
2022-10-04T10:53:58.908Z,1004.43
2022-10-04T10:54:58.898Z,1004.39
2022-10-04T10:55:58.866Z,1004.44
2022-10-04T10:56:58.857Z,1004.37
2022-10-04T10:57:58.849Z,1004.41
2022-10-04T10:58:58.839Z,1004.37
2022-10-04T10:59:58.826Z,1004.39
2022-10-04T11:00:58.844Z,1004.38
2022-10-04T11:01:58.851Z,1004.36
2022-10-04T11:03:12.116Z,1004.36
2022-10-04T11:03:59.826Z,1004.37
2022-10-04T11:04:58.785Z,1004.34
2022-10-04T11:05:58.742Z,1004.32
2022-10-04T11:06:58.769Z,1004.35
2022-10-04T11:07:58.725Z,1004.31
2022-10-04T11:08:58.712Z,1004.32
2022-10-04T11:09:58.703Z,1004.33
2022-10-04T11:10:59.050Z,1004.33
2022-10-04T11:11:58.671Z,1004.30
2022-10-04T11:12:58.691Z,1004.27
2022-10-04T11:13:58.660Z,1004.29
2022-10-04T11:14:58.645Z,1004.21
2022-10-04T11:15:58.691Z,1004.30
2022-10-04T11:16:58.620Z,1004.29
2022-10-04T11:17:58.634Z,1004.32
2022-10-04T11:18:58.609Z,1004.30
2022-10-04T11:19:58.593Z,1004.24
2022-10-04T11:20:58.579Z,1004.29
2022-10-04T11:21:58.575Z,1004.25
2022-10-04T11:22:58.563Z,1004.27
2022-10-04T11:23:58.587Z,1004.28
2022-10-04T11:24:58.515Z,1004.28
2022-10-04T11:25:58.495Z,1004.29
2022-10-04T11:26:58.509Z,1004.24
2022-10-04T11:27:58.542Z,1004.18
2022-10-04T11:28:58.465Z,1004.20
2022-10-04T11:29:58.486Z,1004.19
2022-10-04T11:30:58.503Z,1004.15
2022-10-04T11:31:58.446Z,1004.11
2022-10-04T11:32:58.438Z,1004.14
2022-10-04T11:33:58.427Z,1004.13
2022-10-04T11:34:58.400Z,1004.08
2022-10-04T11:35:58.446Z,1004.14
2022-10-04T11:36:58.375Z,1004.11
2022-10-04T11:37:58.357Z,1004.09
2022-10-04T11:38:58.367Z,1004.09
2022-10-04T11:39:58.337Z,1004.09
2022-10-04T11:40:58.379Z,1004.13
2022-10-04T11:41:58.334Z,1004.09
2022-10-04T11:42:58.309Z,1004.04
2022-10-04T11:43:58.298Z,1004.08
2022-10-04T11:44:58.281Z,1004.06
2022-10-04T11:45:58.259Z,1004.01
2022-10-04T11:46:58.338Z,1004.03
2022-10-04T11:47:58.254Z,1004.04
2022-10-04T11:48:58.260Z,1003.99
2022-10-04T11:49:58.271Z,1003.95
2022-10-04T11:50:58.231Z,1003.98
2022-10-04T11:52:02.129Z,1003.88
2022-10-04T11:52:58.203Z,1003.99
2022-10-04T11:53:58.170Z,1003.90
2022-10-04T11:54:58.184Z,1003.97
2022-10-04T11:55:58.171Z,1003.97
2022-10-04T11:56:58.141Z,1003.89
2022-10-04T11:57:58.182Z,1003.86
2022-10-04T11:58:58.104Z,1003.83
2022-10-04T11:59:58.142Z,1003.86
2022-10-04T12:00:58.083Z,1003.90
2022-10-04T12:01:58.084Z,1003.93
2022-10-04T12:02:58.078Z,1003.91
2022-10-04T12:03:58.250Z,1003.87
2022-10-04T12:04:58.097Z,1003.81